createdAt,value
2018-12-17T00:01:28.913Z,95556.00
2018-12-17T00:03:59.394Z,95546.00
2018-12-17T00:06:29.689Z,95538.00
2018-12-17T00:09:00.100Z,95550.00
2018-12-17T00:11:30.361Z,95555.00
2018-12-17T00:14:00.657Z,95545.00
2018-12-17T00:16:31.010Z,95559.00
2018-12-17T00:19:01.309Z,95560.00
2018-12-17T00:21:31.551Z,95557.00
2018-12-17T00:24:01.834Z,95550.00
2018-12-17T00:26:32.149Z,95562.00
2018-12-17T00:29:02.560Z,95553.00
2018-12-17T00:31:32.796Z,95555.00
2018-12-17T00:34:03.508Z,95562.00
2018-12-17T00:36:33.780Z,95562.00
2018-12-17T00:39:06.542Z,95566.00
2018-12-17T00:41:36.897Z,95559.00
2018-12-17T00:44:07.161Z,95567.00
2018-12-17T00:46:37.403Z,95564.00
2018-12-17T00:49:07.682Z,95573.00
2018-12-17T00:51:38.260Z,95572.00
2018-12-17T00:54:08.528Z,95576.00
2018-12-17T00:56:38.777Z,95573.00
2018-12-17T00:59:09.146Z,95580.00
2018-12-17T01:01:39.417Z,95577.00
2018-12-17T01:04:09.704Z,95573.00
2018-12-17T01:06:39.945Z,95575.00
2018-12-17T01:09:10.212Z,95573.00
2018-12-17T01:11:40.463Z,95571.00
2018-12-17T01:14:10.732Z,95569.00
2018-12-17T01:16:41.081Z,95575.00
2018-12-17T01:19:11.375Z,95577.00
2018-12-17T01:21:42.233Z,95573.00
2018-12-17T01:24:12.517Z,95576.00
2018-12-17T01:26:42.788Z,95577.00
2018-12-17T01:29:13.408Z,95587.00
2018-12-17T01:31:43.648Z,95591.00
2018-12-17T01:34:13.925Z,95598.00
2018-12-17T01:36:44.201Z,95595.00
2018-12-17T01:39:14.490Z,95601.00
2018-12-17T01:41:44.763Z,95598.00
2018-12-17T01:44:15.415Z,95597.00
2018-12-17T01:46:45.655Z,95599.00
2018-12-17T01:49:15.929Z,95602.00
2018-12-17T01:51:46.209Z,95601.00
2018-12-17T01:54:16.500Z,95605.00
2018-12-17T01:56:46.747Z,95600.00
2018-12-17T01:59:17.210Z,95605.00
2018-12-17T02:01:47.681Z,95601.00
2018-12-17T02:04:17.957Z,95606.00
2018-12-17T02:06:48.200Z,95607.00
2018-12-17T02:09:18.525Z,95606.00
2018-12-17T02:11:48.777Z,95610.00
2018-12-17T02:14:19.075Z,95593.00
2018-12-17T02:16:49.314Z,95605.00
2018-12-17T02:19:19.591Z,95612.00
2018-12-17T02:21:49.845Z,95599.00
2018-12-17T02:24:20.147Z,95607.00
2018-12-17T02:26:50.388Z,95608.00
2018-12-17T02:29:20.969Z,95617.00
2018-12-17T02:31:51.213Z,95606.00
2018-12-17T02:34:21.522Z,95614.00
2018-12-17T02:36:51.767Z,95606.00
2018-12-17T02:39:22.033Z,95610.00
2018-12-17T02:41:52.289Z,95610.00
2018-12-17T02:44:22.676Z,95615.00
2018-12-17T02:46:52.923Z,95622.00
2018-12-17T02:49:23.305Z,95628.00
2018-12-17T02:51:53.556Z,95633.00
2018-12-17T02:54:23.880Z,95630.00
2018-12-17T02:56:54.128Z,95640.00
2018-12-17T02:59:24.472Z,95633.00
2018-12-17T03:01:54.715Z,95633.00
2018-12-17T03:04:24.997Z,95628.00
2018-12-17T03:06:55.245Z,95641.00
2018-12-17T03:09:25.525Z,95638.00
2018-12-17T03:11:55.860Z,95643.00
2018-12-17T03:14:26.132Z,95648.00
2018-12-17T03:16:56.368Z,95638.00
2018-12-17T03:19:26.638Z,95658.00
2018-12-17T03:21:56.883Z,95650.00
2018-12-17T03:24:27.147Z,95658.00
2018-12-17T03:26:57.431Z,95656.00
2018-12-17T03:29:27.763Z,95659.00
2018-12-17T03:31:57.994Z,95659.00
2018-12-17T03:34:28.261Z,95658.00
2018-12-17T03:36:58.513Z,95663.00
2018-12-17T03:39:28.775Z,95665.00
2018-12-17T03:41:59.021Z,95673.00
2018-12-17T03:44:29.312Z,95671.00
2018-12-17T03:46:59.557Z,95667.00
2018-12-17T03:49:29.945Z,95668.00
2018-12-17T03:52:00.179Z,95671.00
2018-12-17T03:54:30.443Z,95681.00
2018-12-17T03:57:00.695Z,95677.00
2018-12-17T03:59:30.965Z,95689.00
2018-12-17T04:02:01.302Z,95676.00
2018-12-17T04:04:31.578Z,95687.00
2018-12-17T04:07:01.819Z,95698.00
2018-12-17T04:09:32.088Z,95624.00
2018-12-17T04:12:02.330Z,95694.00
2018-12-17T04:14:32.617Z,95702.00
2018-12-17T04:17:02.845Z,95705.00
2018-12-17T04:19:33.128Z,95703.00
2018-12-17T04:22:03.365Z,95719.00
2018-12-17T04:24:33.636Z,95711.00
2018-12-17T04:27:03.877Z,95710.00
2018-12-17T04:29:34.204Z,95706.00
2018-12-17T04:32:05.761Z,95717.00
2018-12-17T04:34:36.133Z,95711.00
2018-12-17T04:37:06.415Z,95721.00
2018-12-17T04:39:36.659Z,95732.00
2018-12-17T04:42:07.050Z,95725.00
2018-12-17T04:44:37.393Z,95731.00
2018-12-17T04:47:07.671Z,95741.00
2018-12-17T04:49:37.907Z,95743.00
2018-12-17T04:52:08.218Z,95751.00
2018-12-17T04:54:38.458Z,95752.00
2018-12-17T04:57:09.783Z,95747.00
2018-12-17T04:59:40.025Z,95757.00
2018-12-17T05:02:10.330Z,95764.00
2018-12-17T05:04:40.656Z,95766.00
2018-12-17T05:07:10.929Z,95771.00
2018-12-17T05:09:41.192Z,95771.00
2018-12-17T05:12:11.458Z,95769.00
2018-12-17T05:14:42.076Z,95779.00
2018-12-17T05:17:12.394Z,95775.00
2018-12-17T05:19:42.651Z,95777.00
2018-12-17T05:22:13.123Z,95776.00
2018-12-17T05:24:43.368Z,95773.00
2018-12-17T05:27:13.697Z,95779.00
2018-12-17T05:29:43.953Z,95798.00
2018-12-17T05:32:14.228Z,95793.00
2018-12-17T05:34:44.477Z,95800.00
2018-12-17T05:37:14.757Z,95814.00
2018-12-17T05:39:44.988Z,95813.00
2018-12-17T05:42:15.380Z,95805.00
2018-12-17T05:44:45.615Z,95825.00
2018-12-17T05:47:15.886Z,95824.00
2018-12-17T05:49:46.133Z,95827.00
2018-12-17T05:52:16.445Z,95828.00
2018-12-17T05:54:46.684Z,95826.00
2018-12-17T05:57:16.991Z,95832.00
2018-12-17T05:59:47.312Z,95828.00
2018-12-17T06:02:17.578Z,95836.00
2018-12-17T06:04:47.828Z,95838.00
2018-12-17T06:07:18.095Z,95845.00
2018-12-17T06:09:48.491Z,95837.00
2018-12-17T06:12:18.769Z,95859.00
2018-12-17T06:14:49.140Z,95861.00
2018-12-17T06:17:19.595Z,95869.00
2018-12-17T06:19:49.854Z,95869.00
2018-12-17T06:22:20.120Z,95879.00
2018-12-17T06:24:50.356Z,95878.00
2018-12-17T06:27:20.706Z,95889.00
2018-12-17T06:29:50.944Z,95890.00
2018-12-17T06:32:21.223Z,95894.00
2018-12-17T06:34:51.469Z,95907.00
2018-12-17T06:37:21.752Z,95905.00
2018-12-17T06:39:52.073Z,95908.00
2018-12-17T06:42:22.348Z,95918.00
2018-12-17T06:44:52.712Z,95924.00
2018-12-17T06:47:22.997Z,95922.00
2018-12-17T06:49:53.251Z,95927.00
2018-12-17T06:52:23.534Z,95932.00
2018-12-17T06:54:54.920Z,95942.00
2018-12-17T06:57:25.490Z,95934.00
2018-12-17T06:59:55.737Z,95948.00
2018-12-17T07:02:26.223Z,95946.00
2018-12-17T07:04:56.479Z,95946.00
2018-12-17T07:07:26.757Z,95949.00
2018-12-17T07:09:57.006Z,95943.00
2018-12-17T07:12:27.280Z,95954.00
2018-12-17T07:14:57.520Z,95957.00
2018-12-17T07:17:27.814Z,95956.00
2018-12-17T07:19:58.176Z,95960.00
2018-12-17T07:22:28.463Z,95962.00
2018-12-17T07:24:58.736Z,95966.00
2018-12-17T07:27:29.057Z,95981.00
2018-12-17T07:29:59.336Z,95988.00
2018-12-17T07:32:29.605Z,95980.00
2018-12-17T07:34:59.853Z,95993.00
2018-12-17T07:37:30.352Z,95989.00
2018-12-17T07:40:00.698Z,95986.00
2018-12-17T07:42:31.545Z,95992.00
2018-12-17T07:45:01.868Z,95999.00
2018-12-17T07:47:32.147Z,96005.00
2018-12-17T07:50:02.388Z,96005.00
2018-12-17T07:52:32.685Z,96024.00
2018-12-17T07:55:02.948Z,96015.00
2018-12-17T07:57:33.225Z,96023.00
2018-12-17T08:00:04.688Z,96029.00
2018-12-17T08:02:34.953Z,96032.00
2018-12-17T08:05:05.328Z,96030.00
2018-12-17T08:07:35.621Z,96046.00
2018-12-17T08:10:06.488Z,96046.00
2018-12-17T08:12:36.764Z,96035.00
2018-12-17T08:15:07.237Z,96048.00
2018-12-17T08:17:37.506Z,96058.00
2018-12-17T08:20:07.895Z,96060.00
2018-12-17T08:22:38.379Z,96059.00
2018-12-17T08:25:09.764Z,96068.00
2018-12-17T08:27:40.269Z,96066.00
2018-12-17T08:30:10.832Z,96063.00
2018-12-17T08:32:41.105Z,96067.00
2018-12-17T08:35:11.339Z,96008.00
2018-12-17T08:37:41.609Z,96072.00
2018-12-17T08:40:11.856Z,96078.00
2018-12-17T08:42:42.116Z,96091.00
2018-12-17T08:45:12.355Z,96103.00
2018-12-17T08:47:42.620Z,96091.00
2018-12-17T08:50:12.849Z,96086.00
2018-12-17T08:52:43.116Z,96093.00
2018-12-17T08:55:13.386Z,96089.00
2018-12-17T08:57:43.653Z,96095.00
2018-12-17T09:00:14.192Z,96093.00
2018-12-17T09:02:44.460Z,96094.00
2018-12-17T09:05:14.700Z,96085.00
2018-12-17T09:07:44.976Z,96090.00
2018-12-17T09:10:15.212Z,96101.00
2018-12-17T09:12:45.488Z,96103.00
2018-12-17T09:15:15.727Z,96099.00
2018-12-17T09:17:46.009Z,96106.00
2018-12-17T09:20:16.266Z,96108.00
2018-12-17T09:22:46.540Z,96107.00
2018-12-17T09:25:16.830Z,96108.00
2018-12-17T09:27:47.140Z,96104.00
2018-12-17T09:30:18.522Z,96108.00
2018-12-17T09:32:49.049Z,96110.00
2018-12-17T09:35:19.396Z,96109.00
2018-12-17T09:37:49.675Z,96111.00
2018-12-17T09:40:20.018Z,96119.00
2018-12-17T09:42:50.304Z,96118.00
2018-12-17T09:45:20.584Z,96114.00
2018-12-17T09:47:50.877Z,96116.00
2018-12-17T09:50:21.155Z,96129.00
2018-12-17T09:52:51.619Z,96126.00
2018-12-17T09:55:21.851Z,96128.00
2018-12-17T09:57:52.172Z,96136.00
2018-12-17T10:00:25.524Z,96135.00
2018-12-17T10:02:54.814Z,96132.00
2018-12-17T10:05:25.203Z,96143.00
2018-12-17T10:07:55.582Z,96141.00
2018-12-17T10:10:25.820Z,96145.00
2018-12-17T10:12:56.431Z,96142.00
2018-12-17T10:15:26.667Z,96136.00
2018-12-17T10:17:56.933Z,96133.00
2018-12-17T10:20:27.283Z,96133.00
2018-12-17T10:22:57.556Z,96132.00
2018-12-17T10:25:27.892Z,96127.00
2018-12-17T10:27:59.425Z,96126.00
2018-12-17T10:30:32.642Z,96123.00
2018-12-17T10:33:01.961Z,96127.00
2018-12-17T10:35:32.243Z,96135.00
2018-12-17T10:38:02.683Z,96131.00
2018-12-17T10:40:35.873Z,96125.00
2018-12-17T10:43:06.152Z,96116.00
2018-12-17T10:45:36.398Z,96114.00
2018-12-17T10:48:06.793Z,96111.00
2018-12-17T10:50:37.032Z,96101.00
2018-12-17T10:53:07.319Z,96099.00
2018-12-17T10:55:37.580Z,96100.00
2018-12-17T10:58:07.853Z,96093.00
2018-12-17T11:00:43.499Z,96095.00
2018-12-17T11:03:21.119Z,96091.00
2018-12-17T11:05:53.195Z,96092.00
2018-12-17T11:08:29.941Z,96091.00
2018-12-17T11:11:00.611Z,96087.00
2018-12-17T11:13:30.899Z,96079.00
2018-12-17T11:16:01.167Z,96083.00
2018-12-17T11:18:31.678Z,96088.00
2018-12-17T11:21:01.947Z,96084.00
2018-12-17T11:23:32.218Z,96083.00
2018-12-17T11:26:02.477Z,96082.00
2018-12-17T11:28:32.817Z,96083.00
2018-12-17T11:31:03.376Z,96075.00
2018-12-17T11:33:33.936Z,96079.00
2018-12-17T11:36:04.224Z,96069.00
2018-12-17T11:38:36.899Z,96071.00
2018-12-17T11:41:07.148Z,96067.00
2018-12-17T11:43:43.641Z,96078.00
2018-12-17T11:46:11.024Z,96087.00
2018-12-17T11:48:42.545Z,96091.00
2018-12-17T11:51:13.766Z,96095.00
2018-12-17T11:53:44.807Z,96081.00
2018-12-17T11:56:15.433Z,96084.00
2018-12-17T11:58:45.820Z,96085.00
2018-12-17T12:01:16.071Z,96085.00
2018-12-17T12:03:46.481Z,96093.00
2018-12-17T12:06:17.092Z,96105.00
2018-12-17T12:08:47.394Z,96104.00
2018-12-17T12:11:17.654Z,96098.00
2018-12-17T12:13:48.195Z,96118.00
2018-12-17T12:16:18.464Z,96121.00
2018-12-17T12:18:49.497Z,96121.00
2018-12-17T12:21:19.792Z,96121.00
2018-12-17T12:23:50.056Z,96123.00
2018-12-17T12:26:21.405Z,96122.00
2018-12-17T12:28:51.833Z,96131.00
2018-12-17T12:31:22.087Z,96130.00
2018-12-17T12:33:52.390Z,96139.00
2018-12-17T12:36:22.689Z,96133.00
2018-12-17T12:38:53.086Z,96135.00
2018-12-17T12:41:23.463Z,96131.00
2018-12-17T12:43:54.439Z,96142.00
2018-12-17T12:46:24.872Z,96145.00
2018-12-17T12:48:55.155Z,96147.00
2018-12-17T12:51:32.420Z,96147.00
2018-12-17T12:53:57.721Z,96148.00
2018-12-17T12:56:28.197Z,96157.00
2018-12-17T12:58:58.644Z,96159.00
2018-12-17T13:01:28.913Z,96157.00
2018-12-17T13:03:59.199Z,96166.00
2018-12-17T13:06:29.442Z,96176.00
2018-12-17T13:08:59.759Z,96174.00
2018-12-17T13:11:30.037Z,96162.00
2018-12-17T13:14:00.311Z,96173.00
2018-12-17T13:16:30.564Z,96176.00
2018-12-17T13:19:01.719Z,96191.00
2018-12-17T13:21:31.974Z,96182.00
2018-12-17T13:24:02.272Z,96186.00
2018-12-17T13:26:32.552Z,96194.00
2018-12-17T13:29:02.868Z,96205.00
2018-12-17T13:31:33.772Z,96198.00
2018-12-17T13:34:04.535Z,96201.00
2018-12-17T13:36:34.779Z,96197.00
2018-12-17T13:39:08.507Z,96197.00
2018-12-17T13:41:39.127Z,96199.00
2018-12-17T13:44:11.262Z,96200.00
2018-12-17T13:46:42.561Z,96207.00
2018-12-17T13:49:13.188Z,96217.00
2018-12-17T13:51:48.820Z,96217.00
2018-12-17T13:54:20.117Z,96216.00
2018-12-17T13:56:50.438Z,96219.00
2018-12-17T13:59:20.728Z,96220.00
2018-12-17T14:01:56.974Z,96237.00
2018-12-17T14:04:27.286Z,96232.00
2018-12-17T14:06:57.566Z,96221.00
2018-12-17T14:09:28.521Z,96231.00
2018-12-17T14:11:58.851Z,96228.00
2018-12-17T14:17:11.156Z,96245.00
2018-12-17T14:19:45.576Z,96250.00
2018-12-17T14:22:15.937Z,96256.00
2018-12-17T14:24:46.211Z,96265.00
2018-12-17T14:27:16.456Z,96264.00
2018-12-17T14:29:46.755Z,96271.00
2018-12-17T14:32:16.996Z,96272.00
2018-12-17T14:34:47.408Z,96270.00
2018-12-17T14:37:17.660Z,95857.00
2018-12-17T14:39:48.022Z,96278.00
2018-12-17T14:42:18.572Z,96280.00
2018-12-17T14:44:48.906Z,96282.00
2018-12-17T14:47:19.153Z,96298.00
2018-12-17T14:49:49.548Z,96297.00
2018-12-17T14:52:19.789Z,96302.00
2018-12-17T14:54:50.052Z,96295.00
2018-12-17T14:57:20.396Z,96298.00
2018-12-17T14:59:50.691Z,96308.00
2018-12-17T15:02:21.042Z,96311.00
2018-12-17T15:04:51.417Z,96319.00
2018-12-17T15:07:21.672Z,96321.00
2018-12-17T15:09:51.955Z,96322.00
2018-12-17T15:12:22.200Z,96326.00
2018-12-17T15:14:52.524Z,96325.00
2018-12-17T15:17:22.763Z,96331.00
2018-12-17T15:19:53.169Z,96328.00
2018-12-17T15:22:23.419Z,96330.00
2018-12-17T15:24:54.518Z,96338.00
2018-12-17T15:27:24.782Z,96345.00
2018-12-17T15:29:55.584Z,96357.00
2018-12-17T15:32:25.827Z,96361.00
2018-12-17T15:34:56.205Z,96364.00
2018-12-17T15:37:27.587Z,96371.00
2018-12-17T15:39:57.861Z,96372.00
2018-12-17T15:42:28.519Z,96381.00
2018-12-17T15:44:59.475Z,96379.00
2018-12-17T15:47:29.897Z,96381.00
2018-12-17T15:50:00.383Z,96383.00
2018-12-17T15:52:30.692Z,96387.00
2018-12-17T15:55:02.464Z,96391.00
2018-12-17T15:57:32.993Z,96397.00
2018-12-17T16:00:03.556Z,96397.00
2018-12-17T16:02:34.248Z,96446.00
2018-12-17T16:05:05.568Z,96415.00
2018-12-17T16:07:36.710Z,96415.00
2018-12-17T16:10:08.063Z,96421.00
2018-12-17T16:12:38.511Z,96418.00
2018-12-17T16:15:09.264Z,96413.00
2018-12-17T16:17:39.596Z,96421.00
2018-12-17T16:20:10.076Z,96426.00
2018-12-17T16:22:40.343Z,96428.00
2018-12-17T16:25:10.738Z,96433.00
2018-12-17T16:27:41.364Z,96438.00
2018-12-17T16:30:13.124Z,96438.00
2018-12-17T16:32:43.369Z,96441.00
2018-12-17T16:35:13.648Z,96432.00
2018-12-17T16:37:43.888Z,96431.00
2018-12-17T16:40:14.459Z,96438.00
2018-12-17T16:42:44.784Z,96435.00
2018-12-17T16:45:15.162Z,96443.00
2018-12-17T16:47:45.436Z,96437.00
2018-12-17T16:50:15.703Z,96452.00
2018-12-17T16:52:45.964Z,96453.00
2018-12-17T16:55:16.463Z,96457.00
2018-12-17T16:57:46.869Z,96453.00
2018-12-17T17:00:17.243Z,96466.00
2018-12-17T17:02:47.594Z,96467.00
2018-12-17T17:05:17.970Z,96457.00
2018-12-17T17:07:49.188Z,96464.00
2018-12-17T17:10:19.583Z,96473.00
2018-12-17T17:12:50.435Z,96478.00
2018-12-17T17:15:20.720Z,96467.00
2018-12-17T17:17:51.337Z,96478.00
2018-12-17T17:20:21.609Z,96485.00
2018-12-17T17:22:51.988Z,96491.00
2018-12-17T17:25:22.268Z,96492.00
2018-12-17T17:27:52.825Z,96497.00
2018-12-17T17:30:23.294Z,96495.00
2018-12-17T17:32:53.546Z,96499.00
2018-12-17T17:35:24.236Z,96421.00
2018-12-17T17:37:54.460Z,96489.00
2018-12-17T17:40:24.740Z,96505.00
2018-12-17T17:42:54.996Z,96504.00
2018-12-17T17:45:25.632Z,96511.00
2018-12-17T17:47:56.171Z,96520.00
2018-12-17T17:50:26.444Z,96522.00
2018-12-17T17:52:57.077Z,96526.00
2018-12-17T17:55:27.342Z,96529.00
2018-12-17T17:57:57.579Z,96524.00
2018-12-17T18:00:27.931Z,96531.00
2018-12-17T18:02:58.212Z,96533.00
2018-12-17T18:05:28.480Z,96535.00
2018-12-17T18:07:58.753Z,96541.00
2018-12-17T18:10:29.281Z,96532.00
2018-12-17T18:13:01.418Z,96529.00
2018-12-17T18:15:32.001Z,96536.00
2018-12-17T18:18:02.859Z,96538.00
2018-12-17T18:20:33.396Z,96552.00
2018-12-17T18:23:03.623Z,96546.00
2018-12-17T18:25:33.883Z,96548.00
2018-12-17T18:28:09.429Z,96553.00
2018-12-17T18:30:39.907Z,96561.00
2018-12-17T18:33:10.865Z,96570.00
2018-12-17T18:35:41.418Z,96566.00
2018-12-17T18:38:11.731Z,96573.00
2018-12-17T18:40:41.989Z,96573.00
2018-12-17T18:43:12.211Z,96575.00
2018-12-17T18:45:42.769Z,96578.00
2018-12-17T18:48:13.114Z,96583.00
2018-12-17T18:50:43.603Z,96590.00
2018-12-17T18:53:13.855Z,96592.00
2018-12-17T18:55:44.136Z,96590.00
2018-12-17T18:58:14.410Z,96598.00
2018-12-17T19:00:44.688Z,96597.00
2018-12-17T19:03:14.956Z,96596.00
2018-12-17T19:05:45.236Z,96608.00
2018-12-17T19:08:15.644Z,96611.00
2018-12-17T19:10:50.944Z,96616.00
2018-12-17T19:13:21.221Z,96624.00
2018-12-17T19:15:51.505Z,96617.00
2018-12-17T19:18:21.860Z,96623.00
2018-12-17T19:20:52.288Z,96624.00
2018-12-17T19:23:22.531Z,96628.00
2018-12-17T19:25:52.848Z,96634.00
2018-12-17T19:28:23.251Z,96631.00
2018-12-17T19:30:53.607Z,96625.00
2018-12-17T19:33:23.848Z,96640.00
2018-12-17T19:35:54.302Z,96624.00
2018-12-17T19:38:24.541Z,96625.00
2018-12-17T19:40:54.927Z,96635.00
2018-12-17T19:43:25.158Z,96627.00
2018-12-17T19:45:55.900Z,96635.00
2018-12-17T19:48:26.139Z,96633.00
2018-12-17T19:50:56.408Z,96637.00
2018-12-17T19:53:26.757Z,96645.00
2018-12-17T19:55:57.264Z,96649.00
2018-12-17T19:58:27.518Z,96645.00
2018-12-17T20:00:57.925Z,96652.00
2018-12-17T20:03:28.281Z,96650.00
2018-12-17T20:05:58.548Z,96648.00
2018-12-17T20:08:28.788Z,96650.00
2018-12-17T20:10:59.061Z,96652.00
2018-12-17T20:13:29.304Z,96652.00
2018-12-17T20:15:59.575Z,96653.00
2018-12-17T20:18:29.832Z,96656.00
2018-12-17T20:21:00.212Z,96653.00
2018-12-17T20:23:30.449Z,96657.00
2018-12-17T20:26:00.717Z,96666.00
2018-12-17T20:28:31.000Z,96666.00
2018-12-17T20:31:01.284Z,96662.00
2018-12-17T20:33:31.557Z,96672.00
2018-12-17T20:36:01.865Z,96686.00
2018-12-17T20:38:32.467Z,96685.00
2018-12-17T20:41:03.456Z,96683.00
2018-12-17T20:43:33.693Z,96682.00
2018-12-17T20:46:04.299Z,96672.00
2018-12-17T20:48:34.539Z,96681.00
2018-12-17T20:51:04.807Z,96692.00
2018-12-17T20:53:35.044Z,96699.00
2018-12-17T20:56:05.419Z,96697.00
2018-12-17T20:58:36.416Z,96705.00
2018-12-17T21:01:06.795Z,96703.00
2018-12-17T21:03:37.199Z,96716.00
2018-12-17T21:06:07.763Z,96718.00
2018-12-17T21:08:38.010Z,96714.00
2018-12-17T21:11:10.009Z,96707.00
2018-12-17T21:13:40.289Z,96702.00
2018-12-17T21:16:10.660Z,96702.00
2018-12-17T21:18:40.906Z,96697.00
2018-12-17T21:21:11.187Z,96699.00
2018-12-17T21:23:41.615Z,96712.00
2018-12-17T21:26:13.719Z,96703.00
2018-12-17T21:28:44.157Z,96694.00
2018-12-17T21:31:14.636Z,96701.00
2018-12-17T21:33:44.902Z,96705.00
2018-12-17T21:36:15.236Z,96703.00
2018-12-17T21:38:45.517Z,96700.00
2018-12-17T21:41:15.904Z,96701.00
2018-12-17T21:43:46.172Z,96703.00
2018-12-17T21:46:16.747Z,96706.00
2018-12-17T21:48:47.015Z,96702.00
2018-12-17T21:51:17.513Z,96709.00
2018-12-17T21:53:47.747Z,96707.00
2018-12-17T21:56:18.044Z,96717.00
2018-12-17T21:58:48.301Z,96704.00
2018-12-17T22:01:18.583Z,96721.00
2018-12-17T22:03:48.873Z,96730.00
2018-12-17T22:06:20.614Z,96723.00
2018-12-17T22:08:56.255Z,96718.00
2018-12-17T22:11:26.515Z,96727.00
2018-12-17T22:13:57.719Z,96729.00
2018-12-17T22:16:28.209Z,96726.00
2018-12-17T22:18:58.548Z,96727.00
2018-12-17T22:21:29.505Z,96736.00
2018-12-17T22:23:59.752Z,96729.00
2018-12-17T22:26:30.917Z,96736.00
2018-12-17T22:29:01.609Z,96731.00
2018-12-17T22:31:32.213Z,96731.00
2018-12-17T22:34:02.832Z,96729.00
2018-12-17T22:36:33.205Z,96732.00
2018-12-17T22:39:04.667Z,96739.00
2018-12-17T22:41:35.031Z,96730.00
2018-12-17T22:44:05.843Z,96739.00
2018-12-17T22:46:36.247Z,96734.00
2018-12-17T22:49:06.763Z,96745.00
2018-12-17T22:51:37.240Z,96731.00
2018-12-17T22:54:07.523Z,96729.00
2018-12-17T22:56:37.796Z,96720.00
2018-12-17T22:59:08.040Z,96725.00
2018-12-17T23:01:38.312Z,96718.00
2018-12-17T23:04:09.175Z,96723.00
2018-12-17T23:06:39.532Z,96736.00
2018-12-17T23:09:08.551Z,96733.00
2018-12-17T23:12:01.157Z,96729.00
2018-12-17T23:14:48.275Z,96733.00
2018-12-17T23:17:35.440Z,96726.00
2018-12-17T23:20:05.811Z,96739.00
2018-12-17T23:22:36.221Z,96733.00
2018-12-17T23:25:06.499Z,96731.00
2018-12-17T23:27:36.881Z,96731.00
2018-12-17T23:30:09.082Z,96732.00
2018-12-17T23:32:39.460Z,96734.00
2018-12-17T23:35:09.808Z,96732.00
2018-12-17T23:37:40.060Z,96725.00
2018-12-17T23:40:10.395Z,96727.00
2018-12-17T23:42:40.663Z,96728.00
2018-12-17T23:45:11.224Z,96651.00
2018-12-17T23:47:41.488Z,96723.00
2018-12-17T23:50:11.714Z,96731.00
2018-12-17T23:52:42.259Z,96732.00
2018-12-17T23:55:12.580Z,96732.00
2018-12-17T23:57:42.846Z,96718.00
